Time;durP1;ratioP1;P1;durP2;ratioP2;P2;SDS_P1;SDS_P2;PMS_P1;PMS_P2;Temp;Humidity;BMP_temperature;BMP_pressure;BME280_temperature;BME280_humidity;BME280_pressure;Samples;Min_cycle;Max_cycle;Signal;HPM_P1;HPM_P2
2021/09/19 00:01:23;;;;;;;10.50;7.00;;;;;;;;;;5038465;28;20120;-81
2021/09/19 00:03:49;;;;;;;7.63;6.22;;;;;;;;;;5038527;28;20025;-81
2021/09/19 00:06:15;;;;;;;10.38;6.20;;;;;;;;;;5038322;28;20060;-82
2021/09/19 00:08:41;;;;;;;12.23;9.50;;;;;;;;;;5038524;28;20088;-82
2021/09/19 00:11:07;;;;;;;12.98;9.88;;;;;;;;;;5038623;28;20029;-82
2021/09/19 00:13:33;;;;;;;13.05;9.20;;;;;;;;;;5038300;28;20051;-83
2021/09/19 00:16:00;;;;;;;12.25;8.50;;;;;;;;;;5038402;28;20030;-82
2021/09/19 00:18:26;;;;;;;12.60;7.68;;;;;;;;;;5038452;28;20112;-82
2021/09/19 00:20:52;;;;;;;16.33;6.95;;;;;;;;;;5038252;28;20024;-83
2021/09/19 00:23:18;;;;;;;13.60;7.13;;;;;;;;;;5037280;28;20025;-83
2021/09/19 00:25:44;;;;;;;10.65;7.15;;;;;;;;;;5037044;28;20026;-82
2021/09/19 00:28:10;;;;;;;8.65;7.10;;;;;;;;;;5037177;28;20022;-82
2021/09/19 00:30:36;;;;;;;10.02;7.47;;;;;;;;;;5038138;28;20032;-83
2021/09/19 00:33:02;;;;;;;12.93;8.25;;;;;;;;;;5038080;28;20053;-82
2021/09/19 00:35:29;;;;;;;13.77;8.15;;;;;;;;;;5038234;28;20025;-82
2021/09/19 00:37:56;;;;;;;11.02;8.02;;;;;;;;;;5037843;28;20455;-81
2021/09/19 00:40:23;;;;;;;33.35;24.67;;;;;;;;;;5037994;28;20096;-82
2021/09/19 00:42:49;;;;;;;27.83;23.63;;;;;;;;;;5037807;28;20033;-82
2021/09/19 00:45:16;;;;;;;28.23;21.08;;;;;;;;;;5037646;28;20024;-82
2021/09/19 00:47:43;;;;;;;25.42;17.52;;;;;;;;;;5037668;28;20025;-82
2021/09/19 00:50:10;;;;;;;25.67;17.02;;;;;;;;;;5036802;28;20029;-82
2021/09/19 00:52:37;;;;;;;24.05;18.70;;;;;;;;;;5037777;28;20029;-82
2021/09/19 00:55:03;;;;;;;23.30;18.75;;;;;;;;;;5036635;28;20033;-82
2021/09/19 00:57:30;;;;;;;24.15;18.00;;;;;;;;;;5037567;28;20030;-83
2021/09/19 00:59:56;;;;;;;25.15;19.25;;;;;;;;;;5035647;28;20059;-83
2021/09/19 01:02:22;;;;;;;23.63;17.42;;;;;;;;;;5037513;28;20025;-83
2021/09/19 01:04:48;;;;;;;18.60;13.85;;;;;;;;;;5036023;28;20033;-82
2021/09/19 01:07:15;;;;;;;14.45;12.00;;;;;;;;;;5037466;28;20494;-82
2021/09/19 01:09:42;;;;;;;12.23;9.00;;;;;;;;;;5037654;28;20060;-82
2021/09/19 01:12:12;;;;;;;10.85;8.60;;;;;;;;;;5036556;28;20060;-83
2021/09/19 01:14:39;;;;;;;9.82;7.30;;;;;;;;;;5036918;28;20049;-83
2021/09/19 01:17:08;;;;;;;9.32;7.43;;;;;;;;;;5037263;28;20426;-83
2021/09/19 01:19:35;;;;;;;11.00;8.07;;;;;;;;;;5037413;28;20116;-83
2021/09/19 01:22:02;;;;;;;13.57;8.05;;;;;;;;;;5036403;28;20033;-82
2021/09/19 01:24:28;;;;;;;14.05;9.02;;;;;;;;;;5036130;28;20032;-82
2021/09/19 01:26:55;;;;;;;15.32;9.70;;;;;;;;;;5037316;28;20116;-82
2021/09/19 01:29:21;;;;;;;13.02;9.43;;;;;;;;;;5037342;28;20021;-82
2021/09/19 01:31:48;;;;;;;14.93;9.45;;;;;;;;;;5037020;28;20049;-82
2021/09/19 01:34:14;;;;;;;15.25;9.25;;;;;;;;;;5037230;28;20026;-83
2021/09/19 01:36:40;;;;;;;13.45;9.30;;;;;;;;;;5037259;28;20025;-83
2021/09/19 01:39:07;;;;;;;14.25;10.57;;;;;;;;;;5037441;28;20411;-83
2021/09/19 01:41:33;;;;;;;18.75;10.63;;;;;;;;;;5036238;28;20293;-82
2021/09/19 01:44:00;;;;;;;15.05;10.57;;;;;;;;;;5037339;28;20029;-82
2021/09/19 01:46:26;;;;;;;15.00;9.48;;;;;;;;;;5037092;28;20025;-82
2021/09/19 01:48:52;;;;;;;15.80;9.57;;;;;;;;;;5037004;28;20033;-82
2021/09/19 01:51:18;;;;;;;15.88;9.27;;;;;;;;;;5037258;28;20025;-82
2021/09/19 01:53:44;;;;;;;14.73;9.20;;;;;;;;;;5037009;28;20026;-82
2021/09/19 01:56:11;;;;;;;13.10;8.70;;;;;;;;;;5037022;28;20034;-83
2021/09/19 01:58:48;;;;;;;14.48;8.82;;;;;;;;;;5040822;28;20040;-83
2021/09/19 02:01:16;;;;;;;13.25;8.80;;;;;;;;;;5041109;28;20335;-82
2021/09/19 02:03:42;;;;;;;13.32;8.73;;;;;;;;;;5040900;28;20025;-83
2021/09/19 02:06:10;;;;;;;9.88;8.25;;;;;;;;;;5040903;28;20013;-83
2021/09/19 02:08:36;;;;;;;10.70;7.80;;;;;;;;;;5040942;28;20100;-82
2021/09/19 02:11:06;;;;;;;11.80;8.18;;;;;;;;;;5040670;28;20056;-82
2021/09/19 02:13:32;;;;;;;11.93;8.23;;;;;;;;;;5040347;28;20097;-83
2021/09/19 02:15:59;;;;;;;11.55;7.93;;;;;;;;;;5040680;28;20021;-81
2021/09/19 02:18:25;;;;;;;12.52;7.63;;;;;;;;;;5039471;28;20026;-82
2021/09/19 02:20:51;;;;;;;11.13;7.40;;;;;;;;;;5040632;28;20025;-82
2021/09/19 02:23:17;;;;;;;14.38;7.22;;;;;;;;;;5039137;28;20156;-82
2021/09/19 02:25:44;;;;;;;9.40;7.13;;;;;;;;;;5040452;28;20060;-83
2021/09/19 02:28:10;;;;;;;9.93;6.90;;;;;;;;;;5040589;28;20141;-82
2021/09/19 02:30:36;;;;;;;11.13;7.00;;;;;;;;;;5040484;28;20038;-82
2021/09/19 02:33:02;;;;;;;10.10;7.60;;;;;;;;;;5039310;28;20108;-83
2021/09/19 02:35:28;;;;;;;9.75;7.65;;;;;;;;;;5040379;28;20022;-82
2021/09/19 02:37:54;;;;;;;9.43;7.05;;;;;;;;;;5040278;28;20026;-83
2021/09/19 02:40:21;;;;;;;10.73;7.05;;;;;;;;;;5040348;28;20092;-83
2021/09/19 02:42:47;;;;;;;10.80;6.75;;;;;;;;;;5040093;28;20428;-83
2021/09/19 02:45:14;;;;;;;8.65;7.28;;;;;;;;;;5040398;28;20022;-83
2021/09/19 02:47:40;;;;;;;10.10;7.25;;;;;;;;;;5040159;28;20097;-83
2021/09/19 02:50:07;;;;;;;13.15;7.82;;;;;;;;;;5040132;28;20344;-82
2021/09/19 02:52:33;;;;;;;10.60;6.85;;;;;;;;;;5038904;28;20034;-82
2021/09/19 02:54:59;;;;;;;10.00;6.95;;;;;;;;;;5038553;28;20044;-82
2021/09/19 02:57:25;;;;;;;10.07;6.57;;;;;;;;;;5039650;28;20060;-82
2021/09/19 02:59:51;;;;;;;10.25;7.20;;;;;;;;;;5040077;28;20434;-85
2021/09/19 03:02:17;;;;;;;9.10;6.72;;;;;;;;;;5039781;28;20433;-84
2021/09/19 03:04:43;;;;;;;8.68;6.05;;;;;;;;;;5040035;28;20349;-82
2021/09/19 03:07:09;;;;;;;9.68;7.10;;;;;;;;;;5039449;28;20105;-82
2021/09/19 03:09:36;;;;;;;9.10;6.88;;;;;;;;;;5037351;28;20032;-83
2021/09/19 03:12:02;;;;;;;10.30;6.55;;;;;;;;;;5038548;28;20040;-83
2021/09/19 03:14:28;;;;;;;9.20;7.20;;;;;;;;;;5037874;28;20081;-83
2021/09/19 03:16:54;;;;;;;9.05;6.78;;;;;;;;;;5039785;28;20301;-84
2021/09/19 03:19:20;;;;;;;13.65;6.63;;;;;;;;;;5039376;28;20053;-83
2021/09/19 03:21:46;;;;;;;8.10;6.65;;;;;;;;;;5038569;28;20025;-83
2021/09/19 03:24:12;;;;;;;7.88;7.00;;;;;;;;;;5039028;28;20474;-83
2021/09/19 03:26:38;;;;;;;8.15;6.50;;;;;;;;;;5038259;28;20415;-84
2021/09/19 03:29:04;;;;;;;8.95;6.65;;;;;;;;;;5039270;28;20026;-84
2021/09/19 03:31:30;;;;;;;11.23;7.28;;;;;;;;;;5039653;28;20028;-84
2021/09/19 03:33:56;;;;;;;10.73;7.18;;;;;;;;;;5039048;28;20022;-86
2021/09/19 03:36:22;;;;;;;11.05;7.38;;;;;;;;;;5038417;28;20117;-84
2021/09/19 03:38:48;;;;;;;8.60;6.97;;;;;;;;;;5039360;28;20106;-84
2021/09/19 03:41:15;;;;;;;8.50;7.47;;;;;;;;;;5038397;28;20032;-85
2021/09/19 03:43:41;;;;;;;9.00;6.82;;;;;;;;;;5038330;28;20041;-85
2021/09/19 03:46:07;;;;;;;12.32;7.35;;;;;;;;;;5038370;28;20029;-83
2021/09/19 03:48:33;;;;;;;8.75;7.28;;;;;;;;;;5039382;28;20022;-83
2021/09/19 03:51:01;;;;;;;9.70;7.13;;;;;;;;;;5039006;28;20028;-85
2021/09/19 03:53:27;;;;;;;8.57;6.95;;;;;;;;;;5038854;28;20025;-83
2021/09/19 03:55:53;;;;;;;11.13;7.55;;;;;;;;;;5037577;28;20033;-83
2021/09/19 03:58:19;;;;;;;10.05;7.32;;;;;;;;;;5038711;28;20503;-84
2021/09/19 04:00:45;;;;;;;10.02;7.40;;;;;;;;;;5038015;28;20445;-84
2021/09/19 04:03:11;;;;;;;8.82;7.22;;;;;;;;;;5038812;28;20423;-84
2021/09/19 04:05:38;;;;;;;12.10;7.45;;;;;;;;;;5037814;28;20408;-84
2021/09/19 04:08:05;;;;;;;11.23;8.05;;;;;;;;;;5038808;28;20101;-83
2021/09/19 04:10:31;;;;;;;9.43;7.30;;;;;;;;;;5037742;28;20031;-83
2021/09/19 04:12:57;;;;;;;11.68;7.88;;;;;;;;;;5038283;28;20033;-83
2021/09/19 04:15:23;;;;;;;10.88;8.10;;;;;;;;;;5038836;28;20104;-84
2021/09/19 04:17:50;;;;;;;13.10;7.70;;;;;;;;;;5038471;28;20358;-83
2021/09/19 04:20:16;;;;;;;9.98;8.02;;;;;;;;;;5036768;28;20029;-84
2021/09/19 04:22:42;;;;;;;12.57;7.97;;;;;;;;;;5038218;28;20021;-84
2021/09/19 04:25:08;;;;;;;10.50;7.47;;;;;;;;;;5038393;28;20037;-83
2021/09/19 04:27:35;;;;;;;12.40;7.90;;;;;;;;;;5038478;28;20029;-84
2021/09/19 04:30:01;;;;;;;11.20;8.15;;;;;;;;;;5037204;28;20030;-84
2021/09/19 04:32:27;;;;;;;10.07;7.75;;;;;;;;;;5037002;28;20087;-84
2021/09/19 04:34:53;;;;;;;14.18;7.88;;;;;;;;;;5038258;28;20025;-84
2021/09/19 04:37:20;;;;;;;12.20;8.43;;;;;;;;;;5038040;28;20408;-83
2021/09/19 04:39:46;;;;;;;13.98;8.15;;;;;;;;;;5038103;28;20034;-84
2021/09/19 04:42:13;;;;;;;12.18;8.20;;;;;;;;;;5037009;28;20034;-84
2021/09/19 04:44:39;;;;;;;10.77;8.05;;;;;;;;;;5038278;28;20041;-83
2021/09/19 04:47:06;;;;;;;9.93;8.10;;;;;;;;;;5037076;28;20303;-84
2021/09/19 04:49:32;;;;;;;10.27;7.85;;;;;;;;;;5036855;28;20320;-84
2021/09/19 04:51:58;;;;;;;12.80;8.10;;;;;;;;;;5037664;28;20036;-83
2021/09/19 04:54:24;;;;;;;10.18;7.57;;;;;;;;;;5036186;28;20477;-82
2021/09/19 04:56:50;;;;;;;11.55;7.93;;;;;;;;;;5036776;28;20332;-84
2021/09/19 04:59:16;;;;;;;15.20;9.65;;;;;;;;;;5037706;28;20299;-83
2021/09/19 05:01:43;;;;;;;11.25;9.35;;;;;;;;;;5037890;28;20030;-84
2021/09/19 05:04:09;;;;;;;11.38;9.43;;;;;;;;;;5037954;28;20059;-84
2021/09/19 05:06:35;;;;;;;14.25;9.43;;;;;;;;;;5037714;28;20014;-84
2021/09/19 05:09:01;;;;;;;11.18;9.10;;;;;;;;;;5037715;28;20293;-84
2021/09/19 05:11:28;;;;;;;10.77;8.82;;;;;;;;;;5036317;28;20057;-84
2021/09/19 05:13:55;;;;;;;12.15;9.07;;;;;;;;;;5035968;28;20045;-84
2021/09/19 05:16:21;;;;;;;9.90;8.48;;;;;;;;;;5037467;28;20037;-83
2021/09/19 05:18:47;;;;;;;12.10;8.82;;;;;;;;;;5036360;28;20036;-84
2021/09/19 05:21:13;;;;;;;13.05;8.68;;;;;;;;;;5036202;28;20068;-84
2021/09/19 05:23:39;;;;;;;11.68;8.82;;;;;;;;;;5037490;28;20403;-85
2021/09/19 05:26:05;;;;;;;15.15;9.68;;;;;;;;;;5036414;28;20393;-84
2021/09/19 05:28:31;;;;;;;12.38;10.50;;;;;;;;;;5037447;28;20048;-84
2021/09/19 05:30:57;;;;;;;13.07;10.52;;;;;;;;;;5035606;28;20060;-84
2021/09/19 05:33:23;;;;;;;13.63;10.15;;;;;;;;;;5035804;28;20037;-84
2021/09/19 05:35:49;;;;;;;13.90;9.10;;;;;;;;;;5037579;28;20029;-84
2021/09/19 05:38:16;;;;;;;9.30;7.70;;;;;;;;;;5035931;28;20037;-84
2021/09/19 05:40:42;;;;;;;8.60;7.60;;;;;;;;;;5037283;28;20017;-83
2021/09/19 05:43:08;;;;;;;12.02;8.00;;;;;;;;;;5037296;28;20022;-83
2021/09/19 05:45:35;;;;;;;9.45;7.78;;;;;;;;;;5037243;28;20073;-84
2021/09/19 05:48:01;;;;;;;8.50;7.60;;;;;;;;;;5037554;28;20038;-83
2021/09/19 05:50:27;;;;;;;17.38;13.45;;;;;;;;;;5037109;28;20064;-83
2021/09/19 05:52:53;;;;;;;26.40;17.55;;;;;;;;;;5037050;28;20025;-83
2021/09/19 05:55:19;;;;;;;12.55;9.82;;;;;;;;;;5037252;28;20040;-84
2021/09/19 05:57:45;;;;;;;12.15;9.10;;;;;;;;;;5036850;28;20416;-84
2021/09/19 06:00:12;;;;;;;13.40;10.05;;;;;;;;;;5036949;28;20037;-85
2021/09/19 06:02:38;;;;;;;17.92;12.18;;;;;;;;;;5037295;28;20400;-84
2021/09/19 06:05:05;;;;;;;14.20;10.38;;;;;;;;;;5037529;28;20026;-84
2021/09/19 06:07:31;;;;;;;18.02;11.23;;;;;;;;;;5037223;28;20021;-85
2021/09/19 06:09:57;;;;;;;48.00;34.30;;;;;;;;;;5037198;28;20033;-85
2021/09/19 06:12:23;;;;;;;17.80;12.85;;;;;;;;;;5036282;28;20037;-84
2021/09/19 06:14:49;;;;;;;19.05;12.27;;;;;;;;;;5036731;28;20051;-85
2021/09/19 06:17:16;;;;;;;11.95;9.85;;;;;;;;;;5037267;28;20079;-84
2021/09/19 06:19:42;;;;;;;18.08;12.25;;;;;;;;;;5036877;28;20065;-85
2021/09/19 06:22:09;;;;;;;17.70;11.80;;;;;;;;;;5036796;28;20026;-84
2021/09/19 06:24:35;;;;;;;14.45;10.30;;;;;;;;;;5034991;28;20320;-83
2021/09/19 06:27:01;;;;;;;12.55;9.60;;;;;;;;;;5035056;28;20091;-82
2021/09/19 06:29:28;;;;;;;15.32;10.40;;;;;;;;;;5028462;28;20104;-84
2021/09/19 06:31:54;;;;;;;12.40;8.65;;;;;;;;;;5021162;28;20018;-83
2021/09/19 06:34:20;;;;;;;13.02;8.73;;;;;;;;;;5026647;28;20157;-83
2021/09/19 06:36:47;;;;;;;11.57;8.02;;;;;;;;;;5025549;28;20055;-82
2021/09/19 06:39:13;;;;;;;9.60;7.60;;;;;;;;;;5016218;28;20079;-83
2021/09/19 06:41:39;;;;;;;8.73;6.32;;;;;;;;;;5030325;28;20025;-83
2021/09/19 06:44:05;;;;;;;12.35;8.75;;;;;;;;;;5032809;28;20029;-83
2021/09/19 06:46:32;;;;;;;7.70;5.55;;;;;;;;;;5020767;28;20034;-84
2021/09/19 06:48:59;;;;;;;6.78;5.00;;;;;;;;;;5031487;28;20044;-84
2021/09/19 06:51:25;;;;;;;8.43;6.20;;;;;;;;;;5020381;28;20034;-84
2021/09/19 06:53:51;;;;;;;11.68;7.47;;;;;;;;;;5028092;28;20026;-84
2021/09/19 06:56:20;;;;;;;5.53;4.60;;;;;;;;;;5021551;28;20037;-83
2021/09/19 06:58:46;;;;;;;8.63;5.40;;;;;;;;;;5020119;28;20029;-84
2021/09/19 07:01:14;;;;;;;6.03;4.80;;;;;;;;;;5020186;28;20022;-84
2021/09/19 07:03:40;;;;;;;6.63;4.57;;;;;;;;;;5019912;28;20022;-83
2021/09/19 07:06:07;;;;;;;7.57;4.60;;;;;;;;;;5020319;28;20308;-83
2021/09/19 07:08:33;;;;;;;7.43;4.13;;;;;;;;;;5018611;28;20049;-84
2021/09/19 07:10:59;;;;;;;7.15;4.22;;;;;;;;;;5020088;28;20144;-84
2021/09/19 07:13:25;;;;;;;5.57;3.92;;;;;;;;;;5018724;28;20108;-84
2021/09/19 07:15:54;;;;;;;4.53;4.03;;;;;;;;;;5019892;28;20092;-84
2021/09/19 07:18:23;;;;;;;5.35;4.53;;;;;;;;;;5019995;28;20161;-84
2021/09/19 07:20:51;;;;;;;7.72;5.38;;;;;;;;;;5019990;28;20030;-83
2021/09/19 07:23:17;;;;;;;9.85;8.18;;;;;;;;;;5018259;28;20381;-82
2021/09/19 07:25:43;;;;;;;9.70;6.00;;;;;;;;;;5019787;28;20018;-84
2021/09/19 07:28:10;;;;;;;9.18;6.65;;;;;;;;;;5019823;28;20022;-84
2021/09/19 07:30:36;;;;;;;9.73;4.72;;;;;;;;;;5018970;28;20026;-85
2021/09/19 07:33:02;;;;;;;11.60;5.60;;;;;;;;;;5019948;28;20033;-85
2021/09/19 07:35:29;;;;;;;107.15;11.75;;;;;;;;;;5019723;28;20033;-86
2021/09/19 07:37:55;;;;;;;12.50;4.03;;;;;;;;;;5019710;28;20054;-85
2021/09/19 07:40:21;;;;;;;5.82;3.92;;;;;;;;;;5019401;28;20025;-86
2021/09/19 07:42:48;;;;;;;5.32;3.88;;;;;;;;;;5018433;28;20045;-85
2021/09/19 07:45:14;;;;;;;3.10;2.80;;;;;;;;;;5019438;28;20067;-85
2021/09/19 07:47:41;;;;;;;3.90;3.50;;;;;;;;;;5019609;28;20026;-81
2021/09/19 07:50:08;;;;;;;6.00;3.17;;;;;;;;;;5018096;28;20121;-77
2021/09/19 07:52:34;;;;;;;3.92;2.95;;;;;;;;;;5019018;28;20022;-78
2021/09/19 07:55:00;;;;;;;3.88;2.13;;;;;;;;;;5018257;28;20022;-81
2021/09/19 07:57:26;;;;;;;3.90;2.70;;;;;;;;;;5018562;28;20021;-78
2021/09/19 07:59:53;;;;;;;4.00;2.97;;;;;;;;;;5017518;28;20085;-78
2021/09/19 08:02:19;;;;;;;6.15;4.93;;;;;;;;;;5018756;28;20022;-78
2021/09/19 10:45:43;;;;;;;3.22;1.10;;;;;;;;;;5094641;27;20371;-79
2021/09/19 10:48:11;;;;;;;2.10;1.48;;;;;;;;;;5094657;28;20021;-78
2021/09/19 10:50:37;;;;;;;4.38;1.98;;;;;;;;;;5095065;28;20024;-79
2021/09/19 10:53:03;;;;;;;3.10;1.50;;;;;;;;;;5094233;28;20392;-78
2021/09/19 10:55:41;;;;;;;3.20;2.50;;;;;;;;;;5094380;28;20027;-79
2021/09/19 10:58:12;;;;;;;4.65;2.08;;;;;;;;;;5094423;28;20310;-79
2021/09/19 11:00:39;;;;;;;5.43;3.03;;;;;;;;;;5094660;28;20051;-79
2021/09/19 11:03:09;;;;;;;4.43;3.17;;;;;;;;;;5094505;28;20062;-79
2021/09/19 11:05:35;;;;;;;2.92;1.42;;;;;;;;;;5110183;28;20042;-79
2021/09/19 11:08:08;;;;;;;1.58;1.20;;;;;;;;;;5109710;28;20035;-79
2021/09/19 11:10:55;;;;;;;2.70;1.50;;;;;;;;;;5094276;28;20020;-79
2021/09/19 11:13:22;;;;;;;4.28;1.45;;;;;;;;;;5093893;28;20032;-78
2021/09/19 11:16:04;;;;;;;3.92;1.40;;;;;;;;;;5094337;28;20032;-79
2021/09/19 11:18:48;;;;;;;2.30;1.77;;;;;;;;;;5094368;28;20017;-78
2021/09/19 11:21:17;;;;;;;2.30;1.67;;;;;;;;;;5092935;28;20024;-79
2021/09/19 11:24:01;;;;;;;2.97;1.63;;;;;;;;;;5093830;28;20070;-79
2021/09/19 11:26:40;;;;;;;3.40;1.35;;;;;;;;;;5093003;28;20082;-79
2021/09/19 11:29:11;;;;;;;5.30;1.38;;;;;;;;;;5093951;28;20111;-79
2021/09/19 11:31:38;;;;;;;1.73;1.15;;;;;;;;;;5093903;28;20016;-79
2021/09/19 11:34:05;;;;;;;7.68;1.20;;;;;;;;;;5093751;28;20024;-79
2021/09/19 11:36:32;;;;;;;2.60;1.70;;;;;;;;;;5093513;28;20055;-78
2021/09/19 11:38:58;;;;;;;5.07;1.73;;;;;;;;;;5093782;28;20097;-79
2021/09/19 11:41:25;;;;;;;3.40;1.15;;;;;;;;;;5092223;28;20032;-79
2021/09/19 11:43:52;;;;;;;16.30;9.82;;;;;;;;;;5093344;28;20047;-79
2021/09/19 11:46:20;;;;;;;7.57;6.78;;;;;;;;;;5093629;28;20344;-79
2021/09/19 11:48:46;;;;;;;5.28;3.40;;;;;;;;;;5093583;28;20052;-79
2021/09/19 11:51:15;;;;;;;2.55;1.40;;;;;;;;;;5092395;28;20024;-79
2021/09/19 11:53:43;;;;;;;3.67;3.08;;;;;;;;;;5093464;28;20028;-79
2021/09/19 11:56:09;;;;;;;4.45;3.00;;;;;;;;;;5084536;28;20024;-79
2021/09/19 11:58:35;;;;;;;6.70;3.80;;;;;;;;;;5079797;28;20017;-79
2021/09/19 12:01:05;;;;;;;4.28;3.33;;;;;;;;;;5079430;28;20090;-79
2021/09/19 12:03:31;;;;;;;1.42;1.30;;;;;;;;;;5079569;28;20032;-79
2021/09/19 12:06:00;;;;;;;1.67;1.58;;;;;;;;;;5079428;28;20028;-79
2021/09/19 12:08:26;;;;;;;3.58;2.22;;;;;;;;;;5078528;28;20402;-79
2021/09/19 12:10:53;;;;;;;3.63;1.60;;;;;;;;;;5079728;28;20028;-79
2021/09/19 12:13:39;;;;;;;3.22;1.60;;;;;;;;;;5078396;28;20028;-79
2021/09/19 12:16:15;;;;;;;2.15;1.60;;;;;;;;;;5079211;28;20047;-79
2021/09/19 12:18:45;;;;;;;4.25;1.65;;;;;;;;;;5079328;28;20025;-79
2021/09/19 12:21:21;;;;;;;1.25;1.13;;;;;;;;;;5078256;28;20020;-78
2021/09/19 12:23:47;;;;;;;2.38;1.30;;;;;;;;;;5079354;28;20106;-79
2021/09/19 12:26:13;;;;;;;2.15;1.25;;;;;;;;;;5079158;28;20409;-79
2021/09/19 12:28:40;;;;;;;2.15;1.33;;;;;;;;;;5079236;28;20035;-79
2021/09/19 12:31:06;;;;;;;3.53;1.10;;;;;;;;;;5079163;28;20341;-79
2021/09/19 12:33:33;;;;;;;2.15;1.20;;;;;;;;;;5079320;28;20016;-79
2021/09/19 12:35:59;;;;;;;4.82;1.67;;;;;;;;;;5078833;28;20024;-79
2021/09/19 12:38:26;;;;;;;2.88;1.60;;;;;;;;;;5077469;28;20418;-79
2021/09/19 12:41:01;;;;;;;2.15;1.40;;;;;;;;;;5079028;28;20055;-79
2021/09/19 12:43:28;;;;;;;2.97;1.25;;;;;;;;;;5078373;28;20036;-79
2021/09/19 12:45:55;;;;;;;6.18;2.70;;;;;;;;;;5078844;28;20338;-79
2021/09/19 12:48:28;;;;;;;3.45;1.70;;;;;;;;;;5078838;28;20048;-79
2021/09/19 12:50:56;;;;;;;6.00;1.50;;;;;;;;;;5078692;28;20107;-79
2021/09/19 12:53:23;;;;;;;4.60;1.85;;;;;;;;;;5078647;28;20020;-79
2021/09/19 12:55:49;;;;;;;8.82;1.83;;;;;;;;;;5078710;28;20035;-79
2021/09/19 12:58:15;;;;;;;1.52;1.23;;;;;;;;;;5077624;28;20038;-79
2021/09/19 13:00:42;;;;;;;3.13;1.27;;;;;;;;;;5078678;28;20021;-79
2021/09/19 13:03:08;;;;;;;2.78;1.98;;;;;;;;;;5078551;28;20402;-79
2021/09/19 13:05:35;;;;;;;5.35;2.35;;;;;;;;;;5078781;28;20021;-80
2021/09/19 13:08:01;;;;;;;3.70;2.38;;;;;;;;;;5077488;28;20353;-79
2021/09/19 13:10:28;;;;;;;1.95;1.45;;;;;;;;;;5078588;28;20067;-79
2021/09/19 13:12:54;;;;;;;2.95;2.42;;;;;;;;;;5077053;28;20021;-79
2021/09/19 13:15:22;;;;;;;3.97;2.40;;;;;;;;;;5078565;28;20043;-79
2021/09/19 13:17:48;;;;;;;3.65;1.42;;;;;;;;;;5077296;28;20029;-79
2021/09/19 13:20:14;;;;;;;4.70;1.77;;;;;;;;;;5078386;28;20057;-79
2021/09/19 13:22:40;;;;;;;2.25;1.48;;;;;;;;;;5078113;28;20364;-79
2021/09/19 13:25:06;;;;;;;2.00;1.33;;;;;;;;;;5078122;28;20028;-79
2021/09/19 13:27:33;;;;;;;3.60;1.88;;;;;;;;;;5076989;28;20012;-79
2021/09/19 13:29:59;;;;;;;3.90;1.40;;;;;;;;;;5078054;28;20020;-79
2021/09/19 13:32:25;;;;;;;4.57;1.63;;;;;;;;;;5077930;28;20025;-79
2021/09/19 13:34:51;;;;;;;2.95;1.20;;;;;;;;;;5077778;28;20024;-79
2021/09/19 13:37:19;;;;;;;4.00;1.35;;;;;;;;;;5076816;28;20031;-79
2021/09/19 13:39:45;;;;;;;4.97;1.40;;;;;;;;;;5077657;28;20032;-79
2021/09/19 13:42:12;;;;;;;2.38;1.40;;;;;;;;;;5076799;28;20149;-79
2021/09/19 13:44:38;;;;;;;1.33;1.23;;;;;;;;;;5077399;28;20465;-79
2021/09/19 13:47:05;;;;;;;1.58;1.20;;;;;;;;;;5077659;28;20031;-79
2021/09/19 13:49:33;;;;;;;2.65;1.33;;;;;;;;;;5077596;28;20024;-79
2021/09/19 13:52:00;;;;;;;3.20;1.08;;;;;;;;;;5076706;28;20029;-79
2021/09/19 13:54:27;;;;;;;1.27;1.13;;;;;;;;;;5077447;28;20410;-78
2021/09/19 13:56:53;;;;;;;2.78;1.50;;;;;;;;;;5076993;28;20156;-79
2021/09/19 13:59:23;;;;;;;1.92;1.23;;;;;;;;;;5058350;28;20031;-78
2021/09/19 14:01:50;;;;;;;3.60;1.30;;;;;;;;;;5057970;28;20033;-79
2021/09/19 14:04:19;;;;;;;1.55;1.25;;;;;;;;;;5057433;28;20427;-79
2021/09/19 14:06:48;;;;;;;2.72;1.88;;;;;;;;;;5056329;28;20063;-80
2021/09/19 14:09:14;;;;;;;4.75;2.85;;;;;;;;;;5069920;28;20086;-79
2021/09/19 14:11:40;;;;;;;5.45;2.88;;;;;;;;;;5077515;28;20025;-79
2021/09/19 14:14:07;;;;;;;6.65;3.58;;;;;;;;;;5076125;28;20128;-81
2021/09/19 14:16:34;;;;;;;3.40;3.10;;;;;;;;;;5077200;28;20031;-79
2021/09/19 14:19:01;;;;;;;187.85;148.75;;;;;;;;;;5077012;28;20028;-79
2021/09/19 14:21:28;;;;;;;5.95;4.55;;;;;;;;;;5077238;28;20107;-79
2021/09/19 14:23:56;;;;;;;7.43;4.72;;;;;;;;;;5077042;28;20035;-79
2021/09/19 14:26:22;;;;;;;6.57;4.97;;;;;;;;;;5077081;28;20024;-78
2021/09/19 14:28:48;;;;;;;6.22;4.00;;;;;;;;;;5077074;28;20056;-79
2021/09/19 14:31:14;;;;;;;8.52;3.83;;;;;;;;;;5077096;28;20016;-80
2021/09/19 14:33:40;;;;;;;19.70;13.55;;;;;;;;;;5074490;28;20028;-78
2021/09/19 14:36:06;;;;;;;11.05;8.75;;;;;;;;;;5070023;28;20063;-77
2021/09/19 14:38:33;;;;;;;11.35;7.07;;;;;;;;;;5076973;28;20028;-78
2021/09/19 14:40:59;;;;;;;5.68;1.50;;;;;;;;;;5076834;28;20024;-78
2021/09/19 14:43:25;;;;;;;5.25;2.30;;;;;;;;;;5076791;28;20474;-83
2021/09/19 14:45:51;;;;;;;4.63;1.60;;;;;;;;;;5075928;28;20414;-80
2021/09/19 14:48:17;;;;;;;3.47;1.30;;;;;;;;;;5075180;28;20028;-79
2021/09/19 14:50:43;;;;;;;1.77;1.35;;;;;;;;;;5069861;28;20021;-79
2021/09/19 14:53:09;;;;;;;1.85;1.42;;;;;;;;;;5056460;28;20044;-80
2021/09/19 14:55:35;;;;;;;2.78;1.20;;;;;;;;;;5055984;28;20029;-80
2021/09/19 14:58:01;;;;;;;3.10;1.48;;;;;;;;;;5056798;28;20029;-80
2021/09/19 15:00:30;;;;;;;3.20;1.23;;;;;;;;;;5055696;28;20330;-80
2021/09/19 15:02:56;;;;;;;3.67;1.50;;;;;;;;;;5055715;28;20411;-79
2021/09/19 15:05:22;;;;;;;4.47;1.27;;;;;;;;;;5056869;28;20025;-79
2021/09/19 15:07:48;;;;;;;11.25;1.70;;;;;;;;;;5055910;28;20128;-80
2021/09/19 15:10:14;;;;;;;4.38;1.60;;;;;;;;;;5055563;28;20068;-80
2021/09/19 15:12:40;;;;;;;2.05;1.30;;;;;;;;;;5056581;28;20060;-79
2021/09/19 15:15:06;;;;;;;3.90;1.65;;;;;;;;;;5056914;28;20112;-79
2021/09/19 15:17:32;;;;;;;5.82;2.08;;;;;;;;;;5056723;28;20032;-79
2021/09/19 15:19:59;;;;;;;4.25;2.03;;;;;;;;;;5056666;28;20322;-79
2021/09/19 15:22:27;;;;;;;2.35;1.80;;;;;;;;;;5055480;28;20075;-79
2021/09/19 15:24:53;;;;;;;3.65;1.80;;;;;;;;;;5056531;28;20057;-79
2021/09/19 15:27:19;;;;;;;3.83;1.98;;;;;;;;;;5056510;28;20057;-80
2021/09/19 15:29:45;;;;;;;4.05;2.80;;;;;;;;;;5056447;28;20315;-79
2021/09/19 15:32:11;;;;;;;5.75;2.15;;;;;;;;;;5059956;28;20055;-79
2021/09/19 15:34:42;;;;;;;4.53;1.67;;;;;;;;;;5060385;28;20029;-79
2021/09/19 15:37:08;;;;;;;5.32;2.55;;;;;;;;;;5060245;28;20025;-79
2021/09/19 15:39:36;;;;;;;8.13;2.33;;;;;;;;;;5059886;28;20021;-79
2021/09/19 15:42:02;;;;;;;3.65;1.73;;;;;;;;;;5042711;28;20063;-79
2021/09/19 15:44:29;;;;;;;3.72;1.73;;;;;;;;;;5059896;28;20049;-79
2021/09/19 15:46:55;;;;;;;5.10;1.40;;;;;;;;;;5060182;28;20044;-79
2021/09/19 15:49:21;;;;;;;3.20;1.48;;;;;;;;;;5059971;28;20110;-79
2021/09/19 15:51:47;;;;;;;1.98;1.20;;;;;;;;;;5060066;28;20044;-79
2021/09/19 15:54:13;;;;;;;5.82;3.33;;;;;;;;;;5059856;28;20020;-79
2021/09/19 15:56:39;;;;;;;5.57;2.10;;;;;;;;;;5059545;28;20070;-80
2021/09/19 15:59:06;;;;;;;5.40;2.42;;;;;;;;;;5059765;28;20028;-80
2021/09/19 16:01:32;;;;;;;3.97;2.25;;;;;;;;;;5059754;28;20021;-80
2021/09/19 16:04:03;;;;;;;3.67;1.85;;;;;;;;;;5059704;28;20036;-80
2021/09/19 16:06:30;;;;;;;6.32;1.88;;;;;;;;;;5058988;28;20361;-80
2021/09/19 16:08:57;;;;;;;9.02;3.78;;;;;;;;;;5059548;28;20032;-80
2021/09/19 16:11:23;;;;;;;6.35;3.28;;;;;;;;;;5059599;28;20017;-80
2021/09/19 16:13:49;;;;;;;11.48;4.93;;;;;;;;;;5059023;28;20455;-80
2021/09/19 16:16:15;;;;;;;7.03;2.05;;;;;;;;;;5059479;28;20482;-79
2021/09/19 16:18:41;;;;;;;16.17;4.30;;;;;;;;;;5059461;28;20057;-80
2021/09/19 16:21:08;;;;;;;7.60;2.47;;;;;;;;;;5059524;28;20100;-80
2021/09/19 16:23:34;;;;;;;5.43;2.00;;;;;;;;;;5059375;28;20029;-80
2021/09/19 16:26:01;;;;;;;4.88;2.83;;;;;;;;;;5059219;28;20119;-80
2021/09/19 16:28:27;;;;;;;7.63;2.05;;;;;;;;;;5059497;28;20049;-80
2021/09/19 16:30:53;;;;;;;12.77;6.38;;;;;;;;;;5059192;28;20034;-81
2021/09/19 16:33:19;;;;;;;8.02;2.95;;;;;;;;;;5059125;28;20139;-80
2021/09/19 16:35:45;;;;;;;5.35;2.03;;;;;;;;;;5059118;28;20025;-79
2021/09/19 16:38:12;;;;;;;9.65;2.25;;;;;;;;;;5059012;28;20059;-80
2021/09/19 16:40:41;;;;;;;9.88;2.00;;;;;;;;;;5057968;28;20119;-80
2021/09/19 16:43:08;;;;;;;9.00;1.80;;;;;;;;;;5058907;28;20032;-80
2021/09/19 16:45:34;;;;;;;9.45;2.67;;;;;;;;;;5058804;28;20136;-80
2021/09/19 16:48:00;;;;;;;7.72;2.28;;;;;;;;;;5058833;28;20413;-84
2021/09/19 16:50:27;;;;;;;11.20;1.95;;;;;;;;;;5059201;28;20031;-81
2021/09/19 16:52:55;;;;;;;8.93;2.70;;;;;;;;;;5058896;28;20292;-83
2021/09/19 16:55:21;;;;;;;7.63;2.53;;;;;;;;;;5057782;28;20045;-81
2021/09/19 16:57:47;;;;;;;8.45;2.65;;;;;;;;;;5057963;28;20033;-81
2021/09/19 17:00:16;;;;;;;8.38;2.78;;;;;;;;;;5058820;28;20060;-81
2021/09/19 17:02:42;;;;;;;10.57;2.20;;;;;;;;;;5058610;28;20323;-81
2021/09/19 17:05:11;;;;;;;7.57;2.50;;;;;;;;;;5058571;28;20021;-81
2021/09/19 17:07:38;;;;;;;11.27;2.40;;;;;;;;;;5057499;28;20031;-81
2021/09/19 17:10:05;;;;;;;10.18;2.22;;;;;;;;;;5058205;28;20016;-81
2021/09/19 17:12:31;;;;;;;9.77;2.47;;;;;;;;;;5057377;28;20123;-81
2021/09/19 17:14:57;;;;;;;8.20;2.50;;;;;;;;;;5058062;28;20430;-81